Time;durP1;ratioP1;P1;durP2;ratioP2;P2;SDS_P1;SDS_P2;PMS_P1;PMS_P2;Temp;Humidity;BMP_temperature;BMP_pressure;BME280_temperature;BME280_humidity;BME280_pressure;Samples;Min_cycle;Max_cycle;Signal;HPM_P1;HPM_P2
2022/11/19 09:57:31;;;;;;;10.80;7.00;;;;;;;14.32;74.09;99947.13;5146576;23;20055;-69
2022/11/19 10:00:01;;;;;;;17.35;8.23;;;;;;;14.34;74.42;99947.59;4953941;29;20147;-69
2022/11/19 10:02:37;;;;;;;13.93;8.00;;;;;;;14.26;75.02;99942.91;4953890;28;20062;-69
2022/11/19 10:05:06;;;;;;;12.80;7.10;;;;;;;14.13;74.36;99952.88;4953524;28;20059;-69
2022/11/19 10:07:36;;;;;;;13.52;7.25;;;;;;;14.14;74.83;99944.31;4953250;28;20501;-69
2022/11/19 10:10:30;;;;;;;12.85;6.72;;;;;;;14.11;73.76;99945.78;4954552;28;20059;-69
2022/11/19 10:13:23;;;;;;;12.98;6.53;;;;;;;13.93;73.59;99935.84;4953187;28;20055;-69
2022/11/19 10:16:01;;;;;;;13.55;6.97;;;;;;;14.04;75.14;99937.19;4942563;29;20055;-69
2022/11/19 10:18:29;;;;;;;13.10;7.03;;;;;;;14.11;73.56;99934.78;4952990;29;20043;-69
2022/11/19 10:21:26;;;;;;;13.20;6.90;;;;;;;14.16;75.20;99928.28;4952556;28;20051;-69
2022/11/19 10:24:19;;;;;;;14.60;7.82;;;;;;;14.37;74.28;99936.75;4952955;28;20386;-69
2022/11/19 10:26:54;;;;;;;13.77;7.47;;;;;;;14.33;73.49;99929.47;4953291;29;20050;-69
2022/11/19 10:29:26;;;;;;;15.57;8.80;;;;;;;14.41;73.81;99920.41;4944358;29;20047;-69
2022/11/19 10:32:17;;;;;;;12.98;7.90;;;;;;;14.57;74.09;99922.69;4950798;28;20075;-69
2022/11/19 10:34:46;;;;;;;12.27;7.25;;;;;;;14.52;74.78;99926.41;4950454;28;20063;-69
2022/11/19 10:37:18;;;;;;;18.88;9.18;;;;;;;14.88;74.28;99916.22;4950935;28;20051;-69
2022/11/19 10:39:57;;;;;;;13.07;7.57;;;;;;;15.01;74.41;99926.25;4934714;29;20056;-69
2022/11/19 10:42:31;;;;;;;11.77;7.28;;;;;;;15.16;73.38;99915.88;4931336;29;20056;-70
2022/11/19 10:45:26;;;;;;;12.00;6.78;;;;;;;15.03;72.35;99918.50;4932324;29;20056;-69
2022/11/19 10:48:11;;;;;;;12.73;6.35;;;;;;;14.90;73.39;99913.94;4948045;29;20780;-69
2022/11/19 10:50:40;;;;;;;14.10;7.28;;;;;;;14.97;72.93;99913.47;4951000;28;20047;-70
2022/11/19 10:53:15;;;;;;;11.60;6.30;;;;;;;14.86;70.62;99904.75;4950413;28;20048;-69
2022/11/19 10:55:49;;;;;;;11.57;7.05;;;;;;;14.94;72.23;99895.63;4950471;28;20130;-69
2022/11/19 10:58:25;;;;;;;11.50;6.43;;;;;;;15.00;71.29;99894.34;4950620;28;20066;-69
2022/11/19 11:00:55;;;;;;;13.57;6.75;;;;;;;15.14;72.38;99883.13;4947663;29;20051;-69
2022/11/19 11:03:37;;;;;;;11.00;6.03;;;;;;;15.24;70.75;99881.97;4950350;28;20050;-69
2022/11/19 11:06:08;;;;;;;12.23;6.22;;;;;;;15.18;70.59;99884.09;4934267;29;20052;-70
2022/11/19 11:08:54;;;;;;;11.57;6.57;;;;;;;15.22;71.59;99873.22;4934121;29;20066;-70
2022/11/19 11:14:50;;;;;;;18.58;7.70;;;;;;;15.27;71.44;99867.53;4933938;29;20060;-69
2022/11/19 11:17:18;;;;;;;13.68;6.28;;;;;;;15.28;72.26;99869.16;4934059;29;20050;-70
2022/11/19 11:20:06;;;;;;;13.77;6.65;;;;;;;15.13;72.14;99862.22;4934686;29;20055;-70
2022/11/19 11:22:35;;;;;;;11.45;6.47;;;;;;;15.16;72.31;99852.50;4938065;29;20506;-70
2022/11/19 11:25:29;;;;;;;12.82;6.97;;;;;;;15.23;72.13;99850.03;4937640;29;20406;-70
2022/11/19 11:28:17;;;;;;;11.75;6.13;;;;;;;15.31;72.58;99849.19;4938048;29;20063;-69
2022/11/19 11:30:59;;;;;;;10.88;6.70;;;;;;;15.45;71.57;99848.16;4937738;29;20051;-70
2022/11/19 11:33:33;;;;;;;10.70;7.13;;;;;;;15.61;70.78;99839.31;4952455;29;20059;-70
2022/11/19 11:36:06;;;;;;;14.80;7.32;;;;;;;15.66;71.41;99839.13;4937127;29;20390;-70
2022/11/19 11:38:48;;;;;;;12.85;6.15;;;;;;;15.69;71.67;99822.72;4937921;29;20079;-70
2022/11/19 11:41:19;;;;;;;14.10;7.82;;;;;;;15.68;70.61;99834.09;4935848;29;20491;-70
2022/11/19 11:44:17;;;;;;;17.30;7.22;;;;;;;15.72;71.72;99824.00;4937683;29;20055;-69
2022/11/19 11:46:49;;;;;;;20.10;7.10;;;;;;;15.84;69.84;99823.31;4937531;29;20044;-70
2022/11/19 11:49:28;;;;;;;11.45;6.70;;;;;;;15.88;69.64;99823.44;4937282;29;20039;-70
2022/11/19 11:52:02;;;;;;;13.05;6.88;;;;;;;15.89;70.15;99809.28;4937392;29;20036;-70
2022/11/19 11:54:30;;;;;;;13.02;6.90;;;;;;;15.91;69.46;99800.69;4937278;29;20050;-70
2022/11/19 11:57:19;;;;;;;16.58;7.88;;;;;;;15.90;69.75;99788.03;4936848;29;20071;-70
2022/11/19 11:59:47;;;;;;;14.73;8.05;;;;;;;15.63;70.75;99787.41;4936965;29;20406;-70
2022/11/19 12:02:29;;;;;;;15.27;6.88;;;;;;;15.62;70.90;99783.03;4937322;29;20048;-70
2022/11/19 12:05:03;;;;;;;13.90;7.18;;;;;;;15.91;69.71;99778.63;4937497;29;20048;-70
2022/11/19 12:08:15;;;;;;;13.63;7.22;;;;;;;15.91;70.43;99779.44;4937212;29;20055;-69
2022/11/19 12:11:55;;;;;;;15.98;8.23;;;;;;;15.86;69.59;99771.34;4935737;29;20055;-70
2022/11/19 12:14:40;;;;;;;13.32;6.90;;;;;;;15.58;71.08;99761.63;4932320;29;20062;-69
2022/11/19 12:17:45;;;;;;;12.40;7.43;;;;;;;15.70;70.64;99752.63;4931405;29;20055;-70
2022/11/19 12:20:49;;;;;;;12.45;7.10;;;;;;;15.61;71.09;99757.41;4938854;29;20466;-70
2022/11/19 12:23:42;;;;;;;16.27;6.65;;;;;;;15.71;68.90;99753.44;4948013;29;20051;-81
2022/11/19 12:26:31;;;;;;;28.40;10.65;;;;;;;15.36;71.81;99754.47;4919965;29;20393;-82
2022/11/19 12:29:26;;;;;;;23.73;10.40;;;;;;;15.21;71.11;99750.34;4919922;29;20062;-81
2022/11/19 12:32:16;;;;;;;19.67;9.27;;;;;;;15.13;74.40;99752.00;4918109;29;20503;-81
2022/11/19 12:35:14;;;;;;;19.50;9.73;;;;;;;15.09;73.54;99750.22;4903944;29;20487;-81
2022/11/19 12:37:45;;;;;;;17.67;8.88;;;;;;;15.04;75.97;99742.94;4922227;29;20047;-82
2022/11/19 12:40:19;;;;;;;21.80;10.10;;;;;;;14.94;75.78;99741.38;4922733;29;20422;-82
2022/11/19 12:43:09;;;;;;;18.52;9.35;;;;;;;14.91;74.62;99742.03;4922711;29;20055;-81
2022/11/19 12:45:49;;;;;;;14.85;8.07;;;;;;;14.82;74.88;99735.75;4917327;29;20047;-82
2022/11/19 12:49:03;;;;;;;14.35;8.13;;;;;;;14.80;74.97;99738.81;4928313;29;20059;-81
2022/11/19 12:51:40;;;;;;;;;;;;;;;14.80;76.45;99738.81;4940005;29;20505;-81
2022/11/19 12:54:29;;;;;;;14.57;7.88;;;;;;;14.72;75.33;99728.63;4937895;29;19933;-81
2022/11/19 12:57:14;;;;;;;15.57;8.17;;;;;;;14.74;76.46;99729.94;4938088;29;20717;-81
2022/11/19 13:00:09;;;;;;;14.43;7.35;;;;;;;14.71;75.69;99725.06;4937224;29;20047;-81
2022/11/19 13:02:55;;;;;;;11.52;6.80;;;;;;;14.68;77.05;99725.72;4934503;29;20056;-81
2022/11/19 13:05:37;;;;;;;13.52;7.28;;;;;;;14.66;75.89;99725.22;4919052;29;20051;-81
2022/11/19 13:08:14;;;;;;;15.30;7.85;;;;;;;14.77;76.24;99729.28;4919538;29;20058;-81
2022/11/19 13:11:12;;;;;;;14.68;7.53;;;;;;;14.74;76.82;99735.44;4934682;29;20059;-81
2022/11/19 13:13:48;;;;;;;11.57;6.95;;;;;;;14.63;76.00;99728.66;4926281;29;20059;-81
2022/11/19 13:16:20;;;;;;;16.83;8.05;;;;;;;14.62;76.22;99727.81;4933783;29;20074;-81
2022/11/19 13:18:51;;;;;;;13.52;8.00;;;;;;;14.62;75.62;99722.31;4933780;29;20063;-81
2022/11/19 13:21:51;;;;;;;15.55;9.27;;;;;;;14.58;77.58;99734.31;4933872;29;20055;-81
2022/11/19 13:24:31;;;;;;;13.65;7.80;;;;;;;14.56;77.65;99733.84;4903390;29;20055;-81
2022/11/19 13:27:04;;;;;;;17.27;8.15;;;;;;;14.58;76.28;99734.31;4928777;29;20066;-81
2022/11/19 13:29:56;;;;;;;13.27;7.43;;;;;;;14.52;77.69;99729.00;4927475;29;20051;-81
2022/11/19 13:32:30;;;;;;;13.30;7.72;;;;;;;14.49;75.67;99734.34;4931668;29;20494;-81
2022/11/19 13:35:13;;;;;;;;;;;;;;;14.48;77.10;99730.78;4933303;29;20051;-81
2022/11/19 13:37:47;;;;;;;15.20;7.82;;;;;;;14.55;78.95;99733.03;4945280;29;19927;-81
2022/11/19 13:40:29;;;;;;;12.02;7.53;;;;;;;14.50;79.48;99728.53;4934268;29;20411;-81
2022/11/19 13:46:21;;;;;;;11.85;7.22;;;;;;;14.54;77.71;99736.09;4937656;29;20413;-81
2022/11/19 13:49:20;;;;;;;14.35;7.80;;;;;;;14.50;75.72;99733.22;4923715;29;20047;-81
2022/11/19 13:51:56;;;;;;;12.88;7.03;;;;;;;14.46;74.20;99735.00;4925035;29;20141;-81
2022/11/19 13:54:24;;;;;;;15.23;7.68;;;;;;;14.54;75.82;99730.59;4952618;29;20055;-81
2022/11/19 13:56:55;;;;;;;15.45;7.85;;;;;;;14.47;75.75;99737.41;4935941;29;20067;-81
2022/11/19 13:59:29;;;;;;;17.45;7.82;;;;;;;14.46;76.40;99735.00;4949246;29;20071;-81
2022/11/19 14:02:32;;;;;;;16.30;7.95;;;;;;;14.42;77.32;99734.84;4914135;29;20090;-81
2022/11/19 14:05:11;;;;;;;18.38;8.15;;;;;;;14.42;78.22;99740.34;4932249;29;20085;-81
2022/11/19 14:07:52;;;;;;;17.92;8.88;;;;;;;14.43;78.30;99741.97;4917176;29;20094;-81
2022/11/19 14:10:59;;;;;;;19.95;9.73;;;;;;;14.51;78.45;99740.31;4933269;29;20490;-70
2022/11/19 14:13:40;;;;;;;18.85;9.27;;;;;;;14.59;77.79;99744.19;4961285;28;20039;-70
2022/11/19 14:28:50;;;;;;;19.90;9.07;;;;;;;14.46;78.89;99755.06;4952931;29;20055;-70
2022/11/19 14:31:20;;;;;;;16.73;9.57;;;;;;;14.44;78.64;99751.84;4952111;29;20063;-69
2022/11/19 14:33:47;;;;;;;18.70;10.15;;;;;;;14.46;77.74;99746.81;4954035;28;20517;-71
2022/11/19 14:36:24;;;;;;;16.75;10.30;;;;;;;14.51;78.14;99749.41;4951665;29;20055;-71
2022/11/19 14:39:04;;;;;;;19.90;10.05;;;;;;;14.56;77.97;99750.38;4952797;28;20050;-70
2022/11/19 14:41:34;;;;;;;14.98;9.07;;;;;;;14.48;76.77;99754.75;4953883;29;20375;-70
2022/11/19 14:44:08;;;;;;;16.02;8.50;;;;;;;14.49;77.12;99756.38;4952274;29;20043;-70
2022/11/19 14:46:46;;;;;;;19.05;9.18;;;;;;;14.42;78.71;99759.59;4953624;29;20402;-70
2022/11/19 14:49:36;;;;;;;21.90;9.63;;;;;;;14.41;78.12;99763.50;4953574;29;20116;-70
2022/11/19 14:52:21;;;;;;;15.25;8.05;;;;;;;14.36;79.23;99771.91;4953262;29;20051;-70
2022/11/19 14:55:03;;;;;;;14.88;8.60;;;;;;;14.26;79.30;99770.31;4954097;28;20402;-70
2022/11/19 14:57:36;;;;;;;23.48;15.88;;;;;;;14.21;79.41;99778.72;4956975;29;20066;-71
2022/11/19 15:00:27;;;;;;;23.27;13.55;;;;;;;14.14;80.36;99772.91;4956108;29;20394;-70
2022/11/19 15:02:56;;;;;;;18.10;10.38;;;;;;;14.03;80.05;99778.72;4954223;29;20052;-70
2022/11/19 15:05:25;;;;;;;18.27;10.52;;;;;;;13.97;81.71;99774.53;4955415;29;20076;-70
2022/11/19 15:08:15;;;;;;;19.55;10.45;;;;;;;13.89;82.00;99778.88;4957101;29;20047;-70
2022/11/19 15:11:11;;;;;;;17.90;9.73;;;;;;;13.77;81.71;99770.44;4957353;29;20403;-70
2022/11/19 15:13:41;;;;;;;19.75;9.95;;;;;;;13.72;83.18;99781.63;4956011;29;20051;-70
2022/11/19 15:16:18;;;;;;;16.10;9.70;;;;;;;13.70;84.07;99782.75;4956936;29;20049;-70
2022/11/19 15:19:27;;;;;;;27.95;10.70;;;;;;;13.65;84.87;99779.34;4951093;29;20036;-70
2022/11/19 15:22:07;;;;;;;16.58;10.10;;;;;;;13.65;85.41;99782.88;4956557;28;20059;-70
2022/11/19 15:25:04;;;;;;;18.60;9.05;;;;;;;13.61;85.58;99789.34;4938189;28;20064;-70
2022/11/19 15:27:51;;;;;;;20.60;9.40;;;;;;;13.56;85.36;99788.41;4950510;29;20054;-70
2022/11/19 15:30:23;;;;;;;18.70;10.75;;;;;;;13.62;85.49;99772.53;4956874;29;20047;-70
2022/11/19 15:33:02;;;;;;;20.15;10.00;;;;;;;13.56;86.02;99776.56;4956504;28;20051;-70
2022/11/19 15:35:44;;;;;;;17.55;10.40;;;;;;;13.42;87.05;99788.47;4955787;28;20403;-70
2022/11/19 15:38:12;;;;;;;20.85;10.73;;;;;;;13.31;87.61;99790.69;4955731;28;20043;-70
2022/11/19 15:40:48;;;;;;;19.65;10.88;;;;;;;13.27;87.87;99780.66;4955866;28;20062;-70
2022/11/19 15:43:44;;;;;;;25.92;10.73;;;;;;;13.27;88.28;99778.72;4954381;29;20062;-70
2022/11/19 15:46:17;;;;;;;18.40;9.88;;;;;;;13.23;88.70;99785.97;4956473;29;20142;-71
2022/11/19 15:49:10;;;;;;;24.63;12.47;;;;;;;13.20;88.77;99796.81;4954300;29;20406;-70
2022/11/19 15:52:10;;;;;;;18.05;10.13;;;;;;;13.12;89.05;99796.44;4956054;28;20047;-71
2022/11/19 15:54:44;;;;;;;21.70;12.02;;;;;;;13.03;90.29;99788.16;4950425;28;20051;-70
2022/11/19 15:57:15;;;;;;;19.63;11.25;;;;;;;12.97;90.60;99796.84;4955009;28;20062;-70
2022/11/19 15:59:51;;;;;;;17.05;10.52;;;;;;;12.96;90.46;99797.97;4955183;29;20398;-70
2022/11/19 16:02:28;;;;;;;19.90;11.27;;;;;;;12.89;90.98;99804.75;4955088;28;20047;-70
2022/11/19 16:04:55;;;;;;;20.65;11.25;;;;;;;12.93;92.05;99801.34;4955958;28;20054;-70
2022/11/19 16:07:26;;;;;;;22.00;11.18;;;;;;;12.85;92.50;99802.94;4955642;28;20491;-70
2022/11/19 16:09:56;;;;;;;18.67;10.88;;;;;;;12.75;93.11;99804.00;4956149;29;20047;-70
2022/11/19 16:18:18;;;;;;;20.13;12.82;;;;;;;12.66;93.40;99808.63;4956326;29;20051;-70
2022/11/19 16:20:50;;;;;;;21.95;11.52;;;;;;;12.63;93.53;99808.13;4956032;29;20047;-70
2022/11/19 16:23:21;;;;;;;30.60;14.73;;;;;;;12.57;93.45;99814.06;4955716;28;20047;-70
2022/11/19 16:25:50;;;;;;;25.33;13.75;;;;;;;12.61;93.29;99815.88;4955930;29;20051;-70
2022/11/19 16:28:29;;;;;;;30.48;15.20;;;;;;;12.59;95.22;99812.63;4955346;28;20055;-70
2022/11/19 16:31:02;;;;;;;27.25;14.43;;;;;;;12.57;94.65;99814.06;4955913;29;20047;-70
2022/11/19 16:33:32;;;;;;;24.38;14.63;;;;;;;12.49;95.92;99815.63;4955076;28;20062;-70
2022/11/19 16:36:11;;;;;;;28.67;15.50;;;;;;;12.55;94.37;99806.13;4955629;29;20050;-70
2022/11/19 16:38:42;;;;;;;34.55;20.85;;;;;;;12.53;94.95;99811.13;4954795;28;20055;-70
2022/11/19 16:44:01;;;;;;;27.17;16.13;;;;;;;12.50;94.30;99814.50;4955370;29;20494;-70
2022/11/19 16:46:30;;;;;;;32.90;18.75;;;;;;;12.52;94.63;99817.75;4954729;28;20421;-70
2022/11/19 16:49:00;;;;;;;30.98;16.60;;;;;;;12.48;94.97;99820.28;4954996;28;20399;-70
2022/11/19 16:51:35;;;;;;;27.05;14.98;;;;;;;12.46;94.94;99821.75;4955328;28;20051;-70
2022/11/19 16:54:06;;;;;;;30.25;15.63;;;;;;;12.47;95.40;99815.91;4954853;28;20051;-70
2022/11/19 16:56:44;;;;;;;27.90;13.68;;;;;;;12.46;94.66;99835.47;4954729;28;20066;-70
2022/11/19 16:59:20;;;;;;;23.10;13.65;;;;;;;12.44;94.75;99833.03;4970049;28;20047;-70
2022/11/19 17:01:55;;;;;;;25.02;14.27;;;;;;;12.44;95.27;99830.28;4954310;28;20055;-70
2022/11/19 17:04:30;;;;;;;21.45;11.68;;;;;;;12.36;92.11;99826.34;4954334;28;20406;-70
2022/11/19 17:06:59;;;;;;;25.23;13.50;;;;;;;12.49;92.15;99829.34;4954665;28;20518;-70
2022/11/19 17:09:32;;;;;;;27.45;14.40;;;;;;;12.55;91.58;99830.84;4954270;28;20054;-70
2022/11/19 17:12:18;;;;;;;33.70;17.25;;;;;;;12.47;92.17;99839.81;4955081;28;20047;-71
2022/11/19 17:14:58;;;;;;;26.92;15.05;;;;;;;12.39;92.56;99843.28;4954848;28;20058;-70
2022/11/19 17:17:36;;;;;;;25.55;13.40;;;;;;;12.47;91.00;99843.38;4953729;28;20051;-70
2022/11/19 17:20:29;;;;;;;32.35;15.50;;;;;;;12.35;90.74;99835.69;4948966;28;20056;-70
2022/11/19 17:22:58;;;;;;;26.95;15.27;;;;;;;12.43;89.98;99847.06;4951753;28;20059;-70
2022/11/19 17:25:26;;;;;;;27.40;14.68;;;;;;;12.46;90.80;99840.94;4951635;29;20379;-70
2022/11/19 17:27:58;;;;;;;31.65;15.77;;;;;;;12.40;89.78;99842.16;4952538;28;20131;-70
2022/11/19 17:30:32;;;;;;;27.88;13.80;;;;;;;12.40;90.52;99848.47;4951810;28;20051;-70
2022/11/19 17:33:03;;;;;;;31.00;14.63;;;;;;;12.34;91.05;99839.56;4949467;29;20503;-70
2022/11/19 17:35:38;;;;;;;23.02;13.10;;;;;;;12.26;91.26;99837.53;4935326;29;20538;-70
2022/11/19 17:38:11;;;;;;;23.65;13.60;;;;;;;12.32;91.43;99846.47;4942047;29;20047;-70
2022/11/19 17:40:48;;;;;;;23.55;12.75;;;;;;;12.28;91.34;99848.22;4953635;28;20059;-70
2022/11/19 17:46:16;;;;;;;23.33;13.15;;;;;;;12.12;91.09;99856.78;4953842;28;20051;-71
2022/11/19 17:48:45;;;;;;;27.52;13.13;;;;;;;12.15;89.45;99861.66;4953530;28;20055;-71
2022/11/19 17:51:17;;;;;;;25.17;12.85;;;;;;;12.07;88.97;99859.63;4952713;29;20055;-70
2022/11/19 17:53:46;;;;;;;22.80;13.23;;;;;;;11.94;89.18;99856.56;4952750;28;20055;-70
2022/11/19 17:56:18;;;;;;;20.77;12.43;;;;;;;11.98;89.81;99854.06;4951368;28;20047;-70
2022/11/19 17:58:46;;;;;;;29.02;14.27;;;;;;;11.94;88.94;99853.03;4942019;29;20040;-70
2022/11/19 18:01:16;;;;;;;23.23;13.57;;;;;;;11.85;89.79;99854.88;4949444;29;20048;-70
2022/11/19 18:03:44;;;;;;;27.38;13.27;;;;;;;11.93;87.69;99865.13;4938865;28;20055;-70
2022/11/19 18:06:13;;;;;;;34.97;16.00;;;;;;;11.95;86.53;99860.13;4948837;29;20044;-70
2022/11/19 18:08:42;;;;;;;25.83;11.98;;;;;;;11.89;86.98;99864.94;4951384;28;20483;-70
2022/11/19 18:11:18;;;;;;;24.70;12.43;;;;;;;12.09;85.42;99868.38;4951342;28;20070;-70
2022/11/19 18:13:49;;;;;;;24.75;12.15;;;;;;;12.06;85.33;99864.31;4947140;29;20058;-70
2022/11/19 18:16:21;;;;;;;25.35;12.50;;;;;;;11.83;85.66;99868.88;4953289;29;20491;-70
2022/11/19 18:18:49;;;;;;;25.35;13.60;;;;;;;11.67;87.91;99863.72;4953255;28;20055;-70
2022/11/19 18:21:20;;;;;;;27.88;14.27;;;;;;;11.58;86.90;99857.31;4948405;28;20052;-70
2022/11/19 18:23:50;;;;;;;25.02;13.45;;;;;;;11.58;85.63;99857.31;4948165;28;20062;-70
2022/11/19 18:26:23;;;;;;;29.13;14.82;;;;;;;11.50;86.65;99856.13;4936785;29;20052;-70
2022/11/19 18:28:51;;;;;;;29.80;13.93;;;;;;;11.57;86.89;99855.69;4938733;29;20048;-70
2022/11/19 18:31:24;;;;;;;25.48;13.23;;;;;;;11.60;87.67;99859.75;4950280;29;20379;-70
2022/11/19 18:33:54;;;;;;;26.73;13.05;;;;;;;11.62;87.73;99872.03;4946237;28;20051;-70
2022/11/19 18:36:23;;;;;;;25.65;14.18;;;;;;;11.62;87.60;99871.22;4950833;28;20059;-70
2022/11/19 18:38:51;;;;;;;27.40;12.57;;;;;;;11.56;86.78;99873.25;4952213;29;20042;-70
2022/11/19 18:41:19;;;;;;;29.80;13.15;;;;;;;11.50;87.77;99878.03;4953278;29;20042;-70
2022/11/19 18:46:34;;;;;;;39.05;20.23;;;;;;;11.41;86.30;99874.38;4952847;29;20054;-70
2022/11/19 18:49:02;;;;;;;26.90;13.50;;;;;;;11.24;84.80;99873.00;4953093;28;20062;-70
2022/11/19 18:51:30;;;;;;;62.78;31.25;;;;;;;11.26;86.66;99879.03;4953043;28;20414;-70
2022/11/19 18:53:59;;;;;;;53.85;26.02;;;;;;;11.39;86.26;99874.66;4950811;28;20056;-70
2022/11/19 18:56:27;;;;;;;54.63;25.05;;;;;;;11.34;86.76;99871.22;4952933;28;20086;-70
2022/11/19 18:58:55;;;;;;;32.30;16.90;;;;;;;11.41;85.36;99877.09;4951742;29;20059;-70
2022/11/19 19:01:29;;;;;;;28.95;15.13;;;;;;;11.43;86.97;99875.69;4952492;28;20613;-70
2022/11/19 19:03:57;;;;;;;23.00;12.80;;;;;;;11.32;85.68;99877.00;4952623;29;20494;-70
2022/11/19 19:06:25;;;;;;;58.72;18.70;;;;;;;11.24;85.96;99881.22;4952454;29;20483;-70
2022/11/19 19:08:53;;;;;;;73.85;25.17;;;;;;;11.18;83.76;99876.16;4952770;28;20055;-70
2022/11/19 19:14:08;;;;;;;28.25;11.38;;;;;;;11.05;83.12;99891.44;4951748;29;20048;-70
2022/11/19 19:16:35;;;;;;;21.13;9.90;;;;;;;11.06;81.78;99880.19;4951527;28;20078;-70
2022/11/19 19:19:03;;;;;;;34.63;14.27;;;;;;;11.07;81.26;99890.03;4949615;28;20155;-70
2022/11/19 19:21:31;;;;;;;119.82;51.78;;;;;;;11.01;82.19;99886.56;4952291;28;20047;-70
2022/11/19 19:23:59;;;;;;;58.10;27.75;;;;;;;11.11;83.21;99888.28;4951893;28;20047;-70
2022/11/19 19:26:27;;;;;;;55.13;25.20;;;;;;;11.11;82.63;99882.03;4943907;29;20506;-70
2022/11/19 19:28:55;;;;;;;21.33;10.27;;;;;;;11.18;80.30;99887.91;4933378;29;20047;-70
2022/11/19 19:31:23;;;;;;;16.45;9.25;;;;;;;11.50;78.33;99889.00;4933735;29;20506;-70
2022/11/19 19:33:52;;;;;;;11.52;7.57;;;;;;;11.68;78.21;99897.41;4933879;29;20040;-70
2022/11/19 19:36:20;;;;;;;22.35;13.32;;;;;;;11.76;77.32;99895.88;4933945;29;20051;-70
2022/11/19 19:38:48;;;;;;;13.63;7.38;;;;;;;11.81;76.59;99902.09;4933408;29;20051;-70
2022/11/19 19:41:18;;;;;;;13.13;7.55;;;;;;;11.93;76.08;99900.78;4935443;29;20070;-70
2022/11/19 19:43:48;;;;;;;21.23;12.48;;;;;;;12.01;75.70;99904.69;4937311;29;20056;-70
2022/11/19 19:46:20;;;;;;;17.50;9.48;;;;;;;11.99;75.29;99904.22;4937474;29;20055;-70
2022/11/19 19:48:50;;;;;;;15.48;9.55;;;;;;;11.98;75.78;99913.56;4937313;29;20222;-70
2022/11/19 19:51:20;;;;;;;13.98;8.52;;;;;;;11.69;79.05;99921.78;4937175;29;20070;-70
2022/11/19 19:53:48;;;;;;;15.25;8.70;;;;;;;11.64;80.40;99910.13;4937245;29;20059;-70
2022/11/19 19:56:18;;;;;;;12.63;8.40;;;;;;;11.58;79.61;99909.38;4936966;29;20372;-70
2022/11/19 19:58:48;;;;;;;17.20;9.23;;;;;;;11.49;80.56;99917.50;4937461;29;20059;-70
2022/11/19 20:01:19;;;;;;;19.85;10.18;;;;;;;11.34;81.70;99913.09;4936923;29;20406;-70
2022/11/19 20:03:47;;;;;;;14.05;9.60;;;;;;;11.27;82.65;99921.72;4938007;29;20047;-71
2022/11/19 20:06:21;;;;;;;;;;;;;;;11.26;83.21;99922.03;4950479;29;20039;-72
2022/11/19 20:08:49;;;;;;;24.80;13.10;;;;;;;11.15;83.75;99921.41;4954200;28;19923;-72
2022/11/19 20:11:20;;;;;;;23.98;12.48;;;;;;;11.07;85.34;99925.63;4948054;29;20048;-72
2022/11/19 20:13:48;;;;;;;24.23;12.90;;;;;;;11.05;83.26;99938.00;4949403;29;20503;-72
2022/11/19 20:16:18;;;;;;;23.65;12.73;;;;;;;11.01;84.95;99944.03;4942736;29;20059;-72
2022/11/19 20:18:48;;;;;;;25.40;15.02;;;;;;;10.97;83.91;99942.22;4952586;29;20035;-72
2022/11/19 20:21:19;;;;;;;26.85;14.68;;;;;;;10.85;86.13;99946.22;4953285;28;20082;-72
2022/11/19 20:23:47;;;;;;;22.73;12.60;;;;;;;10.82;85.89;99937.78;4953185;28;20047;-72
2022/11/19 20:26:23;;;;;;;24.65;12.32;;;;;;;10.81;86.78;99945.19;4954073;28;20051;-72
2022/11/19 20:28:56;;;;;;;26.40;14.68;;;;;;;10.88;82.65;99944.81;4946253;29;20074;-72
2022/11/19 20:31:24;;;;;;;24.00;15.90;;;;;;;10.83;82.45;99945.72;4953382;29;20062;-72
2022/11/19 20:33:55;;;;;;;22.42;13.85;;;;;;;10.81;81.56;99952.59;4943721;29;20043;-72
2022/11/19 20:36:26;;;;;;;21.00;12.40;;;;;;;10.77;81.51;99946.06;4953640;29;20418;-72
2022/11/19 20:38:56;;;;;;;20.98;11.63;;;;;;;10.73;80.18;99945.84;4951261;29;20394;-72
2022/11/19 20:44:19;;;;;;;18.95;10.18;;;;;;;10.55;82.08;99964.72;4947384;29;20051;-71
2022/11/19 20:46:55;;;;;;;15.45;9.07;;;;;;;10.55;81.29;99961.97;4943027;29;20423;-71
2022/11/19 20:49:34;;;;;;;15.10;8.93;;;;;;;10.59;80.16;99964.94;4948313;29;20058;-71
2022/11/19 20:52:03;;;;;;;13.90;9.18;;;;;;;10.66;80.81;99973.59;4950282;28;20066;-71
2022/11/19 20:54:31;;;;;;;19.40;10.10;;;;;;;10.74;80.16;99969.38;4944769;29;20039;-71
2022/11/19 20:56:59;;;;;;;19.13;9.23;;;;;;;10.81;80.58;99966.28;4951291;29;20052;-70
2022/11/19 20:59:30;;;;;;;13.73;8.60;;;;;;;10.89;80.05;99980.09;4935477;29;20519;-71
2022/11/19 21:01:58;;;;;;;18.73;9.82;;;;;;;10.80;81.42;99981.88;4939531;29;20051;-71
2022/11/19 21:04:35;;;;;;;17.95;9.88;;;;;;;10.68;81.09;99989.72;4947955;29;20506;-71
2022/11/19 21:07:04;;;;;;;17.65;9.80;;;;;;;10.59;80.45;99989.56;4942364;29;20493;-71
2022/11/19 21:09:32;;;;;;;20.35;9.48;;;;;;;10.44;81.80;100001.53;4943681;29;20510;-72
2022/11/19 21:12:00;;;;;;;16.65;9.82;;;;;;;10.29;82.77;99991.56;4947581;29;20044;-71
2022/11/19 21:14:29;;;;;;;18.55;10.27;;;;;;;10.17;83.70;100005.66;4966836;28;20059;-71
2022/11/19 21:16:56;;;;;;;19.40;10.40;;;;;;;10.08;84.35;99997.28;4951561;28;20047;-71
2022/11/19 21:19:24;;;;;;;17.02;10.77;;;;;;;10.10;83.33;99997.78;4945990;28;20069;-71
2022/11/19 21:21:52;;;;;;;16.48;10.30;;;;;;;9.97;84.94;99998.50;4950717;29;20403;-72
2022/11/19 21:24:20;;;;;;;17.20;10.07;;;;;;;9.88;83.85;100003.78;4940500;29;20083;-72
2022/11/19 21:26:49;;;;;;;19.58;10.02;;;;;;;9.85;83.82;100007.06;4949858;28;20051;-73
2022/11/19 21:29:17;;;;;;;19.75;9.82;;;;;;;9.98;84.50;100016.53;4949367;29;20080;-71
2022/11/19 21:31:47;;;;;;;18.38;10.75;;;;;;;10.00;83.03;100019.78;4950344;29;20051;-72
2022/11/19 21:34:21;;;;;;;18.88;10.50;;;;;;;9.99;83.33;100015.41;4946821;28;20402;-71
2022/11/19 21:36:49;;;;;;;20.05;11.50;;;;;;;9.98;82.67;100011.88;4950809;29;20043;-73
2022/11/19 21:39:18;;;;;;;19.83;10.95;;;;;;;9.93;83.32;100015.47;4948847;29;20047;-71
2022/11/19 21:41:47;;;;;;;16.63;9.77;;;;;;;9.87;84.91;100005.69;4948299;28;20048;-71
2022/11/19 21:44:15;;;;;;;25.70;11.75;;;;;;;9.77;86.70;100013.97;4944155;29;20059;-71
2022/11/19 21:46:48;;;;;;;25.27;13.32;;;;;;;9.67;86.69;100017.63;4949830;28;20058;-71
2022/11/19 21:49:16;;;;;;;19.33;11.93;;;;;;;9.63;87.80;100017.41;4945210;29;20043;-71
2022/11/19 21:51:46;;;;;;;19.95;11.63;;;;;;;9.63;87.29;100011.94;4943947;29;20059;-71
2022/11/19 21:54:14;;;;;;;21.88;12.57;;;;;;;9.65;86.54;100015.22;4949370;29;20043;-71
2022/11/19 21:56:42;;;;;;;20.50;13.00;;;;;;;9.64;88.10;100012.75;4950996;28;20047;-71
2022/11/19 21:59:10;;;;;;;18.85;11.82;;;;;;;9.56;88.82;100016.91;4950131;28;20055;-72
2022/11/19 22:01:37;;;;;;;21.42;11.90;;;;;;;9.60;88.57;100017.97;4954123;28;20521;-72
2022/11/19 22:07:08;;;;;;;18.80;11.27;;;;;;;9.78;90.59;100023.84;4980410;23;20054;-69
2022/11/19 22:09:36;;;;;;;20.13;11.32;;;;;;;9.61;89.31;100030.53;4968770;28;20397;-71
2022/11/19 22:12:04;;;;;;;21.48;11.95;;;;;;;9.58;90.27;100031.09;4971651;28;20047;-71
2022/11/19 22:14:31;;;;;;;20.88;10.68;;;;;;;9.53;89.82;100034.69;4973705;28;20065;-71
2022/11/19 22:16:59;;;;;;;20.90;11.10;;;;;;;9.46;90.57;100039.69;4973609;28;20813;-71
2022/11/19 22:19:27;;;;;;;21.98;10.73;;;;;;;9.51;90.43;100034.19;4971694;28;20054;-71
2022/11/19 22:21:54;;;;;;;18.98;9.95;;;;;;;9.52;90.60;100044.00;4973224;28;20046;-71
2022/11/19 22:24:22;;;;;;;19.80;11.15;;;;;;;9.45;91.19;100038.06;4956548;28;20050;-71
2022/11/19 22:26:50;;;;;;;16.98;10.40;;;;;;;9.45;91.08;100035.31;4973096;28;20058;-71
2022/11/19 22:29:17;;;;;;;22.83;11.02;;;;;;;9.44;90.99;100041.06;4971868;28;20051;-71
2022/11/19 22:31:46;;;;;;;20.02;11.27;;;;;;;9.28;91.99;100043.91;4973567;28;20059;-71
2022/11/19 22:34:14;;;;;;;21.20;11.15;;;;;;;9.35;92.26;100049.88;4971372;28;20409;-70
2022/11/19 22:36:42;;;;;;;19.45;10.43;;;;;;;9.36;91.73;100059.69;4971478;28;20039;-71
2022/11/19 22:39:11;;;;;;;16.45;9.82;;;;;;;9.44;91.31;100046.53;4971658;28;20035;-71